Aérodrome :
LOGIN :

S'inscrire | Disclaimer

   EN    FR    IT 

 










Légende :    VFR   VFR Marginal   IFR   IFR Intensif   IFR Très Intensif
Visi : 
Plafond : 
>= 8 km
>= 3000ft
5 à 8 km
1000 à 3000 ft
1500m à 5 km
500 à 1000 ft
800 à 1500m
200 à 500 ft
< 800m
< 200 ft
Symboles :   Orages  Brouillard  Fortes neiges  Fortes précipitations  Vent > 20 kt
SIGMETs :   Divers  Orages  Givrage  Turbulence  Onde Orograph.  Cendres Volcan.






- Altitude de l'aérodrome : 1516 ft
- Code IATA : AGB


EDMA - Augsburg

DERNIER METAR :
  • 212350Z AUTO 19005KT 9999 // BKN075/// OVC087/// 09/02 Q1011

METARs EXPIRÉS :
  • 212320Z AUTO 16005KT 9999 // OVC079/// 08/02 Q1011
  • 212250Z AUTO 15004KT 9999 // FEW057/// OVC072/// 08/02 Q1012
  • 212220Z AUTO 15004KT 9999 // FEW069/// SCT085/// OVC098/// 08/02 Q1012
  • 212150Z AUTO 20003KT 9999 // FEW072/// OVC098/// 08/02 Q1013
  • 212120Z AUTO 18004KT 150V210 9999 // OVC100/// 08/01 Q1013
  • 212050Z AUTO 14004KT 9999 // OVC099/// 08/02 Q1013
  • 212020Z AUTO 17004KT 9999 // OVC095/// 08/01 Q1014
  • 211950Z 16004KT CAVOK 08/01 Q1014
  • 211920Z 15004KT CAVOK 08/01 Q1014

Prévision TAF périmée.



MET'MAP, la Météo Aéronautique d'un coup d'oeil ! - Copyright ORBIFLY Décembre 2007 - Disclaimer

ORBIFLY MET'MAP TEAM :

Programmation & Développement : Alexandra Zaïnal
Sur une idée originale de : Baudouin d'Aumeries
Soutien technique & logistique : Manuel Goepfert
Assistance : Marc-Olivier Méhu




SOURCES & CREDITS :

   NOAA